Time;durP1;ratioP1;P1;durP2;ratioP2;P2;SDS_P1;SDS_P2;PMS_P1;PMS_P2;Temp;Humidity;BMP_temperature;BMP_pressure;BME280_temperature;BME280_humidity;BME280_pressure;Samples;Min_cycle;Max_cycle;Signal;HPM_P1;HPM_P2
2023/03/11 00:00:40;;;;;;;10.52;7.60;;;24.60;99.90;;;;;;4918540;29;20553;-49
2023/03/11 00:03:07;;;;;;;13.40;7.90;;;24.60;99.90;;;;;;4918534;29;20032;-48
2023/03/11 00:05:39;;;;;;;12.15;7.40;;;24.60;99.90;;;;;;4918481;29;20119;-49
2023/03/11 00:08:07;;;;;;;14.68;7.72;;;24.60;99.90;;;;;;4933061;29;20047;-48
2023/03/11 00:10:37;;;;;;;11.85;7.93;;;24.60;99.90;;;;;;4918279;29;20028;-49
2023/03/11 00:13:05;;;;;;;11.85;8.18;;;24.60;99.90;;;;;;4917185;29;20551;-48
2023/03/11 00:15:32;;;;;;;12.52;8.20;;;24.60;99.90;;;;;;4918376;29;20039;-48
2023/03/11 00:17:58;;;;;;;13.03;7.87;;;24.50;99.90;;;;;;4918358;29;20542;-48
2023/03/11 00:20:36;;;;;;;11.90;7.65;;;24.60;99.90;;;;;;4918514;29;20032;-48
2023/03/11 00:23:04;;;;;;;13.52;7.90;;;24.50;99.90;;;;;;4918720;29;20031;-48
2023/03/11 00:25:31;;;;;;;15.23;8.70;;;24.50;99.90;;;;;;4918294;29;20090;-48
2023/03/11 00:27:58;;;;;;;13.27;8.20;;;24.50;99.90;;;;;;4917957;29;20032;-48
2023/03/11 00:30:24;;;;;;;13.75;8.30;;;24.50;99.90;;;;;;4918366;29;20032;-48
2023/03/11 00:32:53;;;;;;;14.30;8.38;;;24.50;99.90;;;;;;4917941;29;20058;-48
2023/03/11 00:35:23;;;;;;;13.27;8.38;;;24.50;99.90;;;;;;4918230;29;20087;-49
2023/03/11 00:37:52;;;;;;;15.95;9.00;;;24.50;99.90;;;;;;4916735;29;20484;-49
2023/03/11 00:40:19;;;;;;;15.57;8.05;;;24.50;99.90;;;;;;4925128;29;20032;-48
2023/03/11 00:42:45;;;;;;;14.70;8.30;;;24.50;99.90;;;;;;4922990;29;20028;-48
2023/03/11 00:45:12;;;;;;;13.27;8.35;;;24.50;99.90;;;;;;4917584;29;20043;-48
2023/03/11 00:47:38;;;;;;;14.05;8.75;;;24.50;99.90;;;;;;4917708;29;20028;-49
2023/03/11 00:50:06;;;;;;;13.35;9.10;;;24.50;99.90;;;;;;4917636;29;20532;-49
2023/03/11 00:52:32;;;;;;;15.23;9.27;;;24.40;99.90;;;;;;4917558;29;20032;-49
2023/03/11 00:54:58;;;;;;;12.48;8.43;;;24.40;99.90;;;;;;4944955;28;20024;-49
2023/03/11 00:57:26;;;;;;;14.52;9.45;;;24.40;99.90;;;;;;4917846;29;20063;-49
2023/03/11 00:59:52;;;;;;;13.25;8.75;;;24.40;99.90;;;;;;4946009;23;20138;-50
2023/03/11 01:02:18;;;;;;;14.75;9.30;;;24.40;99.90;;;;;;4975046;28;20109;-49
2023/03/11 01:04:44;;;;;;;11.75;7.88;;;24.40;99.90;;;;;;4975050;28;20154;-51
2023/03/11 01:07:10;;;;;;;13.88;8.05;;;24.40;99.90;;;;;;4990277;28;20085;-50
2023/03/11 01:09:35;;;;;;;10.88;7.55;;;24.40;99.90;;;;;;4974871;28;20026;-50
2023/03/11 01:12:01;;;;;;;14.15;8.32;;;24.40;99.90;;;;;;4974949;28;20468;-50
2023/03/11 01:14:27;;;;;;;13.05;7.95;;;24.30;99.90;;;;;;4974937;28;20081;-49
2023/03/11 01:16:54;;;;;;;13.48;7.97;;;24.40;99.90;;;;;;4974925;28;20420;-49
2023/03/11 01:19:20;;;;;;;10.77;7.07;;;24.30;99.90;;;;;;4970283;28;20498;-49
2023/03/11 01:21:45;;;;;;;10.73;7.22;;;24.30;99.90;;;;;;4962807;28;20026;-49
2023/03/11 01:24:11;;;;;;;11.77;7.72;;;24.30;99.90;;;;;;4974581;28;20534;-49
2023/03/11 01:26:37;;;;;;;11.07;8.13;;;24.30;99.90;;;;;;4974667;28;20486;-49
2023/03/11 01:29:03;;;;;;;10.98;7.40;;;24.30;99.90;;;;;;4974367;28;20069;-49
2023/03/11 01:31:29;;;;;;;11.80;6.93;;;24.30;99.90;;;;;;4989422;28;20423;-49
2023/03/11 01:33:54;;;;;;;10.60;6.88;;;24.30;99.90;;;;;;4969892;28;20023;-49
2023/03/11 01:36:20;;;;;;;8.35;5.97;;;24.30;99.90;;;;;;4972882;28;20042;-49
2023/03/11 01:38:46;;;;;;;10.77;6.22;;;24.30;99.90;;;;;;4974277;28;20037;-49
2023/03/11 01:41:12;;;;;;;12.18;7.15;;;24.30;99.90;;;;;;4974170;28;20023;-49
2023/03/11 01:43:43;;;;;;;10.52;6.20;;;24.20;99.90;;;;;;4970184;28;20043;-49
2023/03/11 01:46:25;;;;;;;9.68;5.93;;;24.30;99.90;;;;;;4972017;28;20053;-51
2023/03/11 01:48:56;;;;;;;12.90;6.65;;;24.20;99.90;;;;;;4974207;28;20019;-48
2023/03/11 01:51:39;;;;;;;11.00;5.82;;;24.20;99.90;;;;;;4973894;28;20460;-49
2023/03/11 01:54:15;;;;;;;11.23;6.18;;;24.20;99.90;;;;;;4974004;28;20019;-49
2023/03/11 01:56:42;;;;;;;10.55;6.20;;;24.20;99.90;;;;;;4962046;28;20027;-49
2023/03/11 02:01:59;;;;;;;10.10;5.80;;;24.20;99.90;;;;;;4915296;29;20048;-49
2023/03/11 02:04:28;;;;;;;9.85;5.95;;;24.20;99.90;;;;;;4916389;29;20063;-49
2023/03/11 02:06:55;;;;;;;10.88;6.40;;;24.10;99.90;;;;;;4930998;29;20040;-49
2023/03/11 02:09:22;;;;;;;10.07;6.25;;;24.10;99.90;;;;;;4916288;29;20103;-49
2023/03/11 02:11:49;;;;;;;11.18;6.22;;;24.10;99.90;;;;;;4930584;29;20110;-51
2023/03/11 02:14:16;;;;;;;9.27;6.57;;;24.10;99.90;;;;;;4916270;29;20376;-49
2023/03/11 02:16:41;;;;;;;9.32;5.88;;;24.10;99.90;;;;;;4916468;29;20028;-48
2023/03/11 02:19:33;;;;;;;9.77;5.70;;;24.10;99.90;;;;;;4916417;29;20040;-49
2023/03/11 02:22:00;;;;;;;9.80;5.65;;;24.10;99.90;;;;;;4915863;29;20127;-49
2023/03/11 02:24:34;;;;;;;9.25;5.25;;;24.10;99.90;;;;;;4930650;29;20039;-49
2023/03/11 02:27:07;;;;;;;8.95;5.72;;;24.00;99.90;;;;;;4916023;29;20048;-49
2023/03/11 02:29:33;;;;;;;11.63;6.88;;;24.00;99.90;;;;;;4916053;29;20490;-49
2023/03/11 02:32:05;;;;;;;10.20;5.40;;;24.10;99.90;;;;;;4916045;29;20032;-49
2023/03/11 02:34:33;;;;;;;11.05;5.88;;;24.10;99.90;;;;;;4915857;29;20074;-49
2023/03/11 02:37:00;;;;;;;11.00;6.47;;;24.10;99.90;;;;;;4916288;29;20016;-49
2023/03/11 02:39:30;;;;;;;9.93;5.65;;;24.00;99.90;;;;;;4915857;29;20029;-50
2023/03/11 02:41:58;;;;;;;10.27;6.88;;;24.00;99.90;;;;;;4915927;29;20028;-50
2023/03/11 02:44:24;;;;;;;10.50;6.45;;;24.00;99.90;;;;;;4914503;29;20472;-49
2023/03/11 02:46:51;;;;;;;8.82;5.72;;;24.00;99.90;;;;;;4915732;29;20036;-49
2023/03/11 02:49:18;;;;;;;9.30;5.60;;;24.00;99.90;;;;;;4916000;29;20168;-49
2023/03/11 02:51:44;;;;;;;9.88;5.85;;;24.00;99.90;;;;;;4916080;29;20020;-49
2023/03/11 02:54:10;;;;;;;11.63;5.93;;;23.90;99.90;;;;;;4914465;29;20136;-50
2023/03/11 02:56:35;;;;;;;10.63;6.28;;;23.90;99.90;;;;;;4915728;29;20379;-49
2023/03/11 02:59:01;;;;;;;9.70;5.75;;;23.90;99.90;;;;;;4915736;29;20032;-50
2023/03/11 03:01:27;;;;;;;10.00;6.75;;;23.90;99.90;;;;;;4942514;23;20091;-49
2023/03/11 03:03:53;;;;;;;11.27;5.40;;;23.90;99.90;;;;;;4934833;29;20032;-49
2023/03/11 03:06:18;;;;;;;11.10;6.18;;;23.90;99.90;;;;;;4934535;29;20039;-50
2023/03/11 03:08:44;;;;;;;8.88;5.10;;;23.90;99.90;;;;;;4947226;28;20031;-50
2023/03/11 03:11:10;;;;;;;9.60;5.35;;;23.90;99.90;;;;;;4941102;29;20028;-50
2023/03/11 03:13:36;;;;;;;8.60;5.68;;;23.90;99.90;;;;;;4939194;29;20051;-50
2023/03/11 03:16:02;;;;;;;11.43;6.30;;;23.90;99.90;;;;;;4938443;29;20055;-50
2023/03/11 03:18:28;;;;;;;9.07;5.68;;;23.80;99.90;;;;;;4938443;29;20110;-50
2023/03/11 03:20:54;;;;;;;9.15;5.45;;;23.80;99.90;;;;;;4938245;29;20111;-49
2023/03/11 03:23:19;;;;;;;8.77;5.18;;;23.80;99.90;;;;;;4938330;29;20056;-50
2023/03/11 03:25:46;;;;;;;10.73;5.97;;;23.80;99.90;;;;;;4938546;29;20043;-50
2023/03/11 03:28:12;;;;;;;8.38;5.38;;;23.80;99.90;;;;;;4938058;29;20024;-48
2023/03/11 03:30:38;;;;;;;12.10;5.72;;;23.80;99.90;;;;;;4938359;29;20086;-49
2023/03/11 03:33:06;;;;;;;10.25;5.50;;;23.80;99.90;;;;;;4938095;29;20032;-49
2023/03/11 03:35:32;;;;;;;8.85;5.20;;;23.80;99.90;;;;;;4938202;29;20035;-49
2023/03/11 03:38:00;;;;;;;9.65;5.25;;;23.80;99.90;;;;;;4938221;29;20031;-49
2023/03/11 03:40:26;;;;;;;11.07;5.68;;;23.80;99.90;;;;;;4938054;29;20436;-49
2023/03/11 03:42:52;;;;;;;8.40;5.35;;;23.70;99.90;;;;;;4938207;29;20106;-48
2023/03/11 03:45:18;;;;;;;10.52;5.57;;;23.70;99.90;;;;;;4938251;29;20130;-49
2023/03/11 03:47:44;;;;;;;9.15;5.50;;;23.70;99.90;;;;;;4938142;29;20036;-49
2023/03/11 03:50:11;;;;;;;9.02;5.30;;;23.70;99.90;;;;;;4937851;29;20044;-50
2023/03/11 03:52:37;;;;;;;9.98;5.07;;;23.70;99.90;;;;;;4937856;29;20086;-50
2023/03/11 03:55:04;;;;;;;8.20;4.90;;;23.70;99.90;;;;;;4937761;29;20042;-49
2023/03/11 03:57:31;;;;;;;9.73;5.28;;;23.70;99.90;;;;;;4937674;29;20039;-49
2023/03/11 03:59:57;;;;;;;9.02;5.22;;;23.70;99.90;;;;;;4947768;23;20052;-48
2023/03/11 04:02:23;;;;;;;8.15;5.10;;;23.70;99.90;;;;;;4937637;29;20039;-48
2023/03/11 04:04:49;;;;;;;9.13;5.28;;;23.70;99.90;;;;;;4937729;29;20032;-48
2023/03/11 04:07:15;;;;;;;7.70;5.10;;;23.70;99.90;;;;;;4937507;29;20400;-48
2023/03/11 04:09:42;;;;;;;10.10;5.03;;;23.70;99.90;;;;;;4937387;29;20034;-48
2023/03/11 04:12:13;;;;;;;9.35;5.35;;;23.60;99.90;;;;;;4933139;29;20035;-48
2023/03/11 04:14:40;;;;;;;7.45;4.40;;;23.70;99.90;;;;;;4933274;29;20031;-48
2023/03/11 04:17:05;;;;;;;13.32;4.50;;;23.60;99.90;;;;;;4932987;29;20032;-49
2023/03/11 04:19:31;;;;;;;10.95;5.43;;;23.60;99.90;;;;;;4931355;29;20028;-48
2023/03/11 04:21:57;;;;;;;8.43;5.13;;;23.60;99.90;;;;;;4932912;29;20032;-48
2023/03/11 04:24:23;;;;;;;8.57;5.18;;;23.60;99.90;;;;;;4945013;29;20472;-48
2023/03/11 04:26:49;;;;;;;9.80;5.93;;;23.60;99.90;;;;;;4935878;29;20040;-48
2023/03/11 04:29:15;;;;;;;10.18;5.20;;;23.60;99.90;;;;;;4937230;29;20031;-49
2023/03/11 04:31:40;;;;;;;8.20;4.65;;;23.60;99.90;;;;;;4937098;29;20087;-48
2023/03/11 04:34:06;;;;;;;7.88;4.22;;;23.60;99.90;;;;;;4937135;29;20024;-48
2023/03/11 04:36:32;;;;;;;8.77;5.00;;;23.60;99.90;;;;;;4939750;29;20110;-48
2023/03/11 04:38:58;;;;;;;9.73;4.90;;;23.60;99.90;;;;;;4947247;28;20498;-48
2023/03/11 04:41:24;;;;;;;8.73;4.47;;;23.50;99.90;;;;;;4936984;29;20024;-48
2023/03/11 04:43:49;;;;;;;7.72;4.90;;;23.50;99.90;;;;;;4937131;29;20050;-48
2023/03/11 04:46:15;;;;;;;6.40;3.97;;;23.50;99.90;;;;;;4936785;29;20038;-48
2023/03/11 04:48:41;;;;;;;6.90;4.47;;;23.50;99.90;;;;;;4936944;29;20076;-48
2023/03/11 04:51:07;;;;;;;6.95;4.53;;;23.50;99.90;;;;;;4936988;29;20031;-50
2023/03/11 04:53:33;;;;;;;8.02;5.00;;;23.50;99.90;;;;;;4936590;29;20510;-48
2023/03/11 04:55:59;;;;;;;7.75;4.28;;;23.50;99.90;;;;;;4937028;29;20032;-48
2023/03/11 04:58:24;;;;;;;7.25;4.75;;;23.50;99.90;;;;;;4936361;29;20026;-48
2023/03/11 05:00:51;;;;;;;9.25;5.15;;;23.50;99.90;;;;;;4947537;23;20051;-49
2023/03/11 05:03:17;;;;;;;7.85;4.15;;;23.40;99.90;;;;;;4935108;29;20028;-49
2023/03/11 05:05:43;;;;;;;7.55;4.38;;;23.50;99.90;;;;;;4936459;29;20043;-50
2023/03/11 05:08:09;;;;;;;8.18;4.35;;;23.40;99.90;;;;;;4931945;29;20067;-49
2023/03/11 05:10:35;;;;;;;7.20;4.28;;;23.40;99.90;;;;;;4926595;29;20111;-49
2023/03/11 05:13:01;;;;;;;7.43;4.13;;;23.40;99.90;;;;;;4936364;29;20036;-49
2023/03/11 05:15:30;;;;;;;9.00;4.20;;;23.40;99.90;;;;;;4936464;29;20028;-49
2023/03/11 05:17:56;;;;;;;7.60;4.50;;;23.40;99.90;;;;;;4936271;29;20016;-50
2023/03/11 05:20:22;;;;;;;8.30;4.10;;;23.40;99.90;;;;;;4936487;29;20028;-49
2023/03/11 05:22:47;;;;;;;6.30;4.00;;;23.40;99.90;;;;;;4936135;29;20030;-49
2023/03/11 05:25:13;;;;;;;7.25;4.05;;;23.40;99.90;;;;;;4936293;29;20480;-50
2023/03/11 05:27:39;;;;;;;8.93;4.47;;;23.40;99.90;;;;;;4936017;29;20035;-50
2023/03/11 05:30:06;;;;;;;8.00;4.25;;;23.40;99.90;;;;;;4935980;29;20032;-50
2023/03/11 05:32:31;;;;;;;7.45;3.97;;;23.40;99.90;;;;;;4935110;29;20032;-50
2023/03/11 05:34:57;;;;;;;7.85;4.35;;;23.40;99.90;;;;;;4934851;29;20554;-50
2023/03/11 05:37:23;;;;;;;8.35;4.30;;;23.40;99.90;;;;;;4936261;29;20087;-50
2023/03/11 05:39:50;;;;;;;6.40;3.95;;;23.40;99.90;;;;;;4935900;29;20161;-50
2023/03/11 05:42:16;;;;;;;7.57;3.72;;;23.40;99.90;;;;;;4936190;29;20456;-50
2023/03/11 05:44:42;;;;;;;7.70;3.78;;;23.40;99.90;;;;;;4950548;28;20106;-50
2023/03/11 05:47:08;;;;;;;10.55;4.43;;;23.40;99.90;;;;;;4935734;29;20032;-50
2023/03/11 05:49:33;;;;;;;6.78;3.75;;;23.30;99.90;;;;;;4935534;29;20472;-49
2023/03/11 05:51:59;;;;;;;7.40;4.45;;;23.40;99.90;;;;;;4935764;29;20472;-48
2023/03/11 05:54:25;;;;;;;7.93;4.90;;;23.30;99.90;;;;;;4935837;29;20020;-49
2023/03/11 05:56:51;;;;;;;6.68;4.20;;;23.30;99.90;;;;;;4935674;29;20480;-49
2023/03/11 05:59:17;;;;;;;8.38;4.03;;;23.30;99.90;;;;;;4935528;29;20476;-49
2023/03/11 06:01:43;;;;;;;8.00;5.15;;;23.30;99.90;;;;;;4934104;29;20130;-49
2023/03/11 06:04:10;;;;;;;7.43;4.75;;;23.30;99.90;;;;;;4946691;29;20150;-52
2023/03/11 06:06:39;;;;;;;8.75;4.50;;;23.30;99.90;;;;;;4936857;28;20032;-48
2023/03/11 06:09:04;;;;;;;6.95;4.10;;;23.30;99.90;;;;;;4935437;29;20028;-49
2023/03/11 06:11:30;;;;;;;9.52;4.38;;;23.30;99.90;;;;;;4950107;28;20110;-49
2023/03/11 06:13:57;;;;;;;7.97;4.65;;;23.30;99.90;;;;;;4935746;29;20023;-50
2023/03/11 06:16:24;;;;;;;7.53;4.28;;;23.30;99.90;;;;;;4937649;29;20034;-49
2023/03/11 06:18:50;;;;;;;8.80;5.27;;;23.30;99.90;;;;;;4945658;28;20391;-49
2023/03/11 06:21:19;;;;;;;7.30;4.30;;;23.30;99.90;;;;;;4935084;29;20116;-51
2023/03/11 06:23:45;;;;;;;10.43;4.80;;;23.30;99.90;;;;;;4935235;29;20024;-50
2023/03/11 06:26:14;;;;;;;9.10;4.50;;;23.30;99.90;;;;;;4935192;29;20102;-51
2023/03/11 06:28:41;;;;;;;7.55;5.00;;;23.30;99.90;;;;;;4935142;29;20015;-51
2023/03/11 06:31:09;;;;;;;9.90;4.50;;;23.30;99.90;;;;;;4935161;29;20046;-50
2023/03/11 06:33:35;;;;;;;8.63;4.10;;;23.30;99.90;;;;;;4934793;29;20020;-50
2023/03/11 06:36:03;;;;;;;9.18;4.97;;;23.20;99.90;;;;;;4935042;29;20032;-50
2023/03/11 06:38:29;;;;;;;7.63;4.35;;;23.30;99.90;;;;;;4934859;29;20375;-51
2023/03/11 06:41:02;;;;;;;8.93;4.47;;;23.20;99.90;;;;;;4934928;29;20043;-50
2023/03/11 06:43:30;;;;;;;8.07;4.30;;;23.20;99.90;;;;;;4947570;29;20022;-50
2023/03/11 06:45:56;;;;;;;7.10;4.60;;;23.20;99.90;;;;;;4934981;29;20071;-51
2023/03/11 06:48:22;;;;;;;8.32;4.40;;;23.20;99.90;;;;;;4934792;29;20024;-51
2023/03/11 06:50:55;;;;;;;7.50;4.82;;;23.20;99.90;;;;;;4934700;29;20031;-52
2023/03/11 06:53:21;;;;;;;8.82;4.32;;;23.20;99.90;;;;;;4947807;29;20023;-50
2023/03/11 06:56:06;;;;;;;6.72;4.20;;;23.20;99.90;;;;;;4934809;29;20055;-50
2023/03/11 06:58:34;;;;;;;11.38;5.28;;;23.20;99.90;;;;;;4938822;29;20082;-50
2023/03/11 07:01:24;;;;;;;8.10;4.35;;;23.20;99.90;;;;;;4943245;28;20043;-51
2023/03/11 07:03:50;;;;;;;8.07;3.72;;;23.20;99.90;;;;;;4934776;29;20024;-51
2023/03/11 07:06:22;;;;;;;8.25;4.28;;;23.20;99.90;;;;;;4934768;29;20062;-50
2023/03/11 07:08:49;;;;;;;8.77;4.88;;;23.20;99.90;;;;;;4934682;29;20028;-50
2023/03/11 07:11:27;;;;;;;4.88;3.22;;;23.20;99.90;;;;;;4934728;29;20055;-50
2023/03/11 07:13:54;;;;;;;8.52;4.10;;;23.20;99.90;;;;;;4930241;29;20139;-51
2023/03/11 07:16:22;;;;;;;7.75;4.40;;;23.20;99.90;;;;;;4929174;29;20031;-51
2023/03/11 07:18:50;;;;;;;7.35;4.13;;;23.20;99.90;;;;;;4940866;29;20118;-51
2023/03/11 07:21:18;;;;;;;8.95;4.45;;;23.20;99.90;;;;;;4940724;28;20027;-51
2023/03/11 07:23:45;;;;;;;9.30;4.53;;;23.20;99.90;;;;;;4934570;29;20107;-49
2023/03/11 07:26:12;;;;;;;5.97;4.05;;;23.20;99.90;;;;;;4934530;29;20480;-51
2023/03/11 07:28:39;;;;;;;8.85;4.43;;;23.20;99.90;;;;;;4930167;29;20429;-50
2023/03/11 07:31:11;;;;;;;6.53;4.03;;;23.20;99.90;;;;;;4927750;29;20020;-51
2023/03/11 07:33:37;;;;;;;12.05;5.05;;;23.30;99.90;;;;;;4930206;29;20047;-51
2023/03/11 07:36:08;;;;;;;7.72;4.50;;;23.30;99.90;;;;;;4926801;29;20115;-51
2023/03/11 07:38:34;;;;;;;9.15;4.40;;;23.30;99.90;;;;;;4934422;29;20028;-51
2023/03/11 07:41:00;;;;;;;7.40;4.07;;;23.30;99.90;;;;;;4934707;29;20028;-50
2023/03/11 07:43:26;;;;;;;9.48;4.55;;;23.30;99.90;;;;;;4934351;29;20032;-50
2023/03/11 07:45:53;;;;;;;8.45;4.70;;;23.30;99.90;;;;;;4934305;29;20387;-50
2023/03/11 07:48:19;;;;;;;9.15;4.25;;;23.30;99.90;;;;;;4934401;29;20095;-51
2023/03/11 07:50:45;;;;;;;8.98;4.05;;;23.30;99.90;;;;;;4934321;29;20032;-50
2023/03/11 07:53:11;;;;;;;5.45;3.53;;;23.30;99.90;;;;;;4934260;29;20042;-52
2023/03/11 07:55:36;;;;;;;7.50;3.88;;;23.30;99.90;;;;;;4935771;29;20031;-50
2023/03/11 07:58:02;;;;;;;10.25;4.97;;;23.40;99.90;;;;;;4950020;29;20038;-50
2023/03/11 08:00:28;;;;;;;8.00;3.78;;;23.30;99.90;;;;;;4937138;29;20078;-50
2023/03/11 08:02:53;;;;;;;10.13;4.78;;;23.30;99.90;;;;;;4937612;29;20039;-51
2023/03/11 08:05:19;;;;;;;7.85;4.13;;;23.40;99.90;;;;;;4950324;29;20023;-51
2023/03/11 08:07:45;;;;;;;8.02;4.00;;;23.30;99.90;;;;;;4952346;29;20028;-49
2023/03/11 08:10:12;;;;;;;9.23;3.78;;;23.40;99.90;;;;;;4938772;29;20059;-52
2023/03/11 08:12:37;;;;;;;7.25;3.90;;;23.40;99.90;;;;;;4947695;28;20024;-51
2023/03/11 08:15:04;;;;;;;6.68;3.75;;;23.40;99.90;;;;;;4937754;29;20051;-51
2023/03/11 08:17:29;;;;;;;7.07;3.90;;;23.40;99.90;;;;;;4937332;28;20027;-51
2023/03/11 08:19:55;;;;;;;6.32;3.42;;;23.40;99.90;;;;;;4937267;29;20356;-51
2023/03/11 08:22:21;;;;;;;7.13;3.85;;;23.40;99.90;;;;;;4937431;29;20365;-51
2023/03/11 08:24:51;;;;;;;8.25;3.72;;;23.40;99.90;;;;;;4937445;29;20361;-51
2023/03/11 08:27:17;;;;;;;8.52;3.75;;;23.40;99.90;;;;;;4920325;29;20086;-51
2023/03/11 08:29:43;;;;;;;10.45;4.07;;;23.40;99.90;;;;;;4929916;29;20027;-51
2023/03/11 08:32:09;;;;;;;9.77;4.10;;;23.40;99.90;;;;;;4936940;29;20035;-50
2023/03/11 08:34:34;;;;;;;7.22;3.90;;;23.40;99.90;;;;;;4937435;29;20432;-49
2023/03/11 08:37:00;;;;;;;8.35;4.10;;;23.50;99.90;;;;;;4936981;29;20019;-50
2023/03/11 08:39:26;;;;;;;6.35;3.65;;;23.50;99.90;;;;;;4935733;29;20027;-50
2023/03/11 08:41:52;;;;;;;8.07;4.35;;;23.50;99.90;;;;;;4936872;29;20087;-51
2023/03/11 08:44:18;;;;;;;7.05;4.50;;;23.50;99.90;;;;;;4936830;29;20075;-48
2023/03/11 08:46:44;;;;;;;8.25;4.32;;;23.50;99.90;;;;;;4936809;29;20492;-52
2023/03/11 08:49:09;;;;;;;8.75;4.63;;;23.50;99.90;;;;;;4936827;29;20547;-52
2023/03/11 08:51:36;;;;;;;9.30;4.68;;;23.50;99.90;;;;;;4936860;29;20035;-53
2023/03/11 08:54:02;;;;;;;6.80;4.60;;;23.50;99.90;;;;;;4936647;29;20027;-51
2023/03/11 08:56:28;;;;;;;11.60;5.75;;;23.50;99.90;;;;;;4936650;29;20024;-53
2023/03/11 08:58:54;;;;;;;8.75;5.13;;;23.50;99.90;;;;;;4936751;29;20403;-53
2023/03/11 09:01:21;;;;;;;9.02;5.45;;;23.60;99.90;;;;;;4936410;29;20055;-53
2023/03/11 09:03:47;;;;;;;9.93;4.78;;;23.60;99.90;;;;;;4940680;29;20086;-53
2023/03/11 09:06:14;;;;;;;10.98;4.75;;;23.60;99.90;;;;;;4944870;28;20035;-52
2023/03/11 09:08:42;;;;;;;8.27;4.88;;;23.60;99.90;;;;;;4936329;29;20122;-52
2023/03/11 09:11:08;;;;;;;9.02;4.70;;;23.60;99.90;;;;;;4936744;29;20043;-52
2023/03/11 09:13:34;;;;;;;8.18;4.65;;;23.60;99.90;;;;;;4936261;29;20036;-51
2023/03/11 09:16:01;;;;;;;7.05;4.47;;;23.60;99.90;;;;;;4936171;29;20185;-52
2023/03/11 09:18:28;;;;;;;8.90;4.20;;;23.60;99.90;;;;;;4936009;29;20020;-51
2023/03/11 09:20:57;;;;;;;8.48;4.05;;;23.60;99.90;;;;;;4935912;29;20384;-52
2023/03/11 09:23:23;;;;;;;12.02;5.00;;;23.60;99.90;;;;;;4950014;29;20031;-52
2023/03/11 09:25:48;;;;;;;7.15;3.80;;;23.60;99.90;;;;;;4935836;29;20079;-52
2023/03/11 09:28:14;;;;;;;7.05;3.55;;;23.60;99.90;;;;;;4934551;29;20499;-53
2023/03/11 09:30:40;;;;;;;6.22;3.90;;;23.60;99.90;;;;;;4936270;29;20023;-52
2023/03/11 09:33:06;;;;;;;7.15;3.50;;;23.70;99.90;;;;;;4936033;29;20027;-52
2023/03/11 09:35:31;;;;;;;6.25;3.30;;;23.70;99.90;;;;;;4935868;29;20387;-51
2023/03/11 09:37:57;;;;;;;8.73;3.90;;;23.70;99.90;;;;;;4946493;29;20441;-52
2023/03/11 09:40:25;;;;;;;9.10;3.92;;;23.70;99.90;;;;;;4936844;29;20034;-53
2023/03/11 09:43:26;;;;;;;6.78;3.53;;;23.70;99.90;;;;;;4935904;29;20034;-52
2023/03/11 09:46:16;;;;;;;8.10;3.17;;;23.70;99.90;;;;;;4935487;29;20455;-53
2023/03/11 09:48:51;;;;;;;5.80;3.88;;;23.80;99.90;;;;;;4935638;29;20357;-52
2023/03/11 09:51:26;;;;;;;7.53;3.80;;;23.80;99.90;;;;;;4935670;29;20083;-52
2023/03/11 09:54:04;;;;;;;5.15;3.00;;;23.80;99.90;;;;;;4931627;29;20017;-53
2023/03/11 09:56:33;;;;;;;7.55;3.60;;;23.80;99.90;;;;;;4930286;29;20058;-52
2023/03/11 09:59:13;;;;;;;5.53;3.40;;;23.90;99.90;;;;;;4935402;29;20024;-53
2023/03/11 10:01:45;;;;;;;5.72;3.08;;;23.90;99.90;;;;;;4935310;29;20086;-53
2023/03/11 10:04:32;;;;;;;5.20;3.17;;;23.90;99.90;;;;;;4935685;29;20047;-53
2023/03/11 10:07:00;;;;;;;;;;;23.90;99.90;;;;;;4935910;29;20114;-53
2023/03/11 10:09:29;;;;;;;5.35;3.20;;;24.00;99.90;;;;;;4935527;29;19906;-52
2023/03/11 10:12:01;;;;;;;6.13;3.60;;;24.00;99.90;;;;;;4935245;29;20068;-52
2023/03/11 10:14:38;;;;;;;5.93;2.78;;;24.00;99.90;;;;;;4935257;29;20062;-51
2023/03/11 10:17:23;;;;;;;6.47;2.92;;;24.00;99.90;;;;;;4930764;29;20504;-52
2023/03/11 10:19:57;;;;;;;6.82;3.53;;;24.10;99.90;;;;;;4929002;29;20079;-53
2023/03/11 10:22:53;;;;;;;6.10;2.67;;;24.10;99.90;;;;;;4935061;29;20023;-51
2023/03/11 10:25:36;;;;;;;5.97;3.58;;;24.10;99.90;;;;;;4934796;29;20046;-51
2023/03/11 10:28:09;;;;;;;6.63;2.97;;;24.20;99.90;;;;;;4935002;29;20036;-51
2023/03/11 10:30:46;;;;;;;4.60;2.90;;;24.20;99.90;;;;;;4933684;29;20055;-51
2023/03/11 10:33:28;;;;;;;7.63;3.78;;;24.20;99.90;;;;;;4935135;29;20028;-51
2023/03/11 10:35:57;;;;;;;5.60;3.38;;;24.20;99.90;;;;;;4935112;29;20476;-52
2023/03/11 10:38:41;;;;;;;4.25;2.47;;;24.20;99.90;;;;;;4934775;29;20042;-52
2023/03/11 10:41:32;;;;;;;5.10;3.15;;;24.30;99.90;;;;;;4934935;29;20024;-52
2023/03/11 10:44:22;;;;;;;8.68;4.35;;;24.30;99.90;;;;;;4934907;29;20039;-52
2023/03/11 10:46:48;;;;;;;4.40;2.80;;;24.30;99.90;;;;;;4934482;29;20102;-52
2023/03/11 10:49:16;;;;;;;5.95;3.13;;;24.30;99.90;;;;;;4930586;29;20107;-53
2023/03/11 10:51:49;;;;;;;7.35;3.28;;;24.30;99.90;;;;;;4931259;29;20031;-52
2023/03/11 10:54:32;;;;;;;4.82;2.53;;;24.40;99.90;;;;;;4934994;29;20028;-53
2023/03/11 10:57:20;;;;;;;5.93;3.03;;;24.40;99.90;;;;;;4934569;29;20144;-51
2023/03/11 10:59:54;;;;;;;7.03;3.42;;;24.40;99.90;;;;;;4934595;29;20365;-52
2023/03/11 11:02:24;;;;;;;7.82;3.35;;;24.50;99.90;;;;;;4934703;29;20024;-56
2023/03/11 11:05:19;;;;;;;5.53;2.70;;;24.50;99.90;;;;;;4934364;29;20024;-52
2023/03/11 11:07:47;;;;;;;3.42;2.55;;;24.50;99.90;;;;;;4930640;29;20083;-52
2023/03/11 11:10:25;;;;;;;6.57;3.13;;;24.50;99.90;;;;;;4931062;29;20027;-53
2023/03/11 11:13:11;;;;;;;5.07;2.60;;;24.50;99.90;;;;;;4934785;29;20024;-53
2023/03/11 11:15:40;;;;;;;5.53;3.00;;;24.60;99.90;;;;;;4922109;29;20027;-52
2023/03/11 11:18:28;;;;;;;4.05;2.80;;;24.60;99.90;;;;;;4934523;29;20476;-52
2023/03/11 11:20:56;;;;;;;6.50;2.70;;;24.70;99.90;;;;;;4939276;29;20040;-52
2023/03/11 11:23:41;;;;;;;;;;;24.70;99.90;;;;;;4934923;29;20062;-52
2023/03/11 11:26:36;;;;;;;4.18;2.47;;;24.70;99.90;;;;;;4934562;29;19950;-52
2023/03/11 11:29:06;;;;;;;5.00;2.30;;;24.70;99.90;;;;;;4938023;29;20613;-53
2023/03/11 11:31:32;;;;;;;3.80;2.13;;;24.70;99.90;;;;;;4937242;29;20388;-53
2023/03/11 11:33:58;;;;;;;6.85;2.20;;;24.80;99.90;;;;;;4933809;29;20032;-52
2023/03/11 11:36:35;;;;;;;5.90;2.30;;;24.80;99.90;;;;;;4931198;29;20024;-53
2023/03/11 11:39:03;;;;;;;7.10;2.55;;;24.80;99.90;;;;;;4937888;29;20437;-52
2023/03/11 11:41:34;;;;;;;4.32;2.05;;;24.90;99.90;;;;;;4931126;29;20030;-52
2023/03/11 11:44:04;;;;;;;5.45;2.45;;;24.80;99.90;;;;;;4937889;29;20430;-52
2023/03/11 11:46:40;;;;;;;4.50;2.65;;;24.90;99.90;;;;;;4933675;29;20065;-52
2023/03/11 11:49:27;;;;;;;5.78;2.70;;;24.90;99.90;;;;;;4925810;29;20028;-51
2023/03/11 11:52:07;;;;;;;4.25;2.45;;;24.90;99.90;;;;;;4937664;29;20046;-52
2023/03/11 11:54:42;;;;;;;5.85;2.53;;;25.00;99.90;;;;;;4937790;29;20028;-53
2023/03/11 11:57:14;;;;;;;6.60;2.90;;;25.00;99.90;;;;;;4937656;29;20519;-53
2023/03/11 11:59:41;;;;;;;3.42;2.30;;;25.00;99.90;;;;;;4933140;29;20476;-53
2023/03/11 12:02:18;;;;;;;5.85;2.58;;;25.00;99.90;;;;;;4934791;29;20079;-53
2023/03/11 12:05:00;;;;;;;5.32;2.80;;;25.00;99.90;;;;;;4937554;29;20035;-53
2023/03/11 12:07:28;;;;;;;5.82;2.60;;;25.00;99.90;;;;;;4937385;29;20380;-52
2023/03/11 12:09:59;;;;;;;6.07;3.35;;;25.00;99.90;;;;;;4937627;29;20539;-53
2023/03/11 12:12:25;;;;;;;5.38;2.20;;;25.10;99.90;;;;;;4937726;29;20035;-53
2023/03/11 12:15:14;;;;;;;6.95;2.53;;;25.10;99.90;;;;;;4933125;29;20020;-52
2023/03/11 12:17:42;;;;;;;6.60;3.08;;;25.10;99.90;;;;;;4925070;29;20031;-53
2023/03/11 12:20:21;;;;;;;6.30;2.20;;;25.20;99.90;;;;;;4937107;29;20032;-52
2023/03/11 12:23:08;;;;;;;7.22;2.90;;;25.10;99.90;;;;;;4936097;29;20032;-54
2023/03/11 12:25:43;;;;;;;6.28;2.67;;;25.20;99.90;;;;;;4925233;29;20487;-53
2023/03/11 12:28:18;;;;;;;6.22;2.70;;;25.20;99.90;;;;;;4937093;29;20035;-53
2023/03/11 12:30:54;;;;;;;6.78;2.67;;;25.30;99.90;;;;;;4937210;29;20051;-51
2023/03/11 12:33:35;;;;;;;5.03;2.80;;;25.20;99.90;;;;;;4952038;29;20576;-51
2023/03/11 12:36:03;;;;;;;7.75;3.10;;;25.30;99.90;;;;;;4937048;29;20030;-51
2023/03/11 12:38:38;;;;;;;6.60;2.70;;;25.30;99.90;;;;;;4936809;29;20035;-51
2023/03/11 12:41:13;;;;;;;3.25;2.33;;;25.30;99.90;;;;;;4936468;29;20059;-51
2023/03/11 12:43:42;;;;;;;4.22;2.42;;;25.30;99.90;;;;;;4936750;29;20024;-51
2023/03/11 12:46:09;;;;;;;5.30;2.45;;;25.30;99.90;;;;;;4936836;29;20075;-52
2023/03/11 12:48:44;;;;;;;7.70;2.75;;;25.40;99.90;;;;;;4936744;29;20024;-52
2023/03/11 12:51:28;;;;;;;3.38;2.30;;;25.40;99.90;;;;;;4936658;29;20147;-53
2023/03/11 12:53:54;;;;;;;5.72;2.70;;;25.40;99.90;;;;;;4932428;29;20059;-52
2023/03/11 12:56:23;;;;;;;10.35;3.35;;;25.40;99.90;;;;;;4942762;29;20031;-51
2023/03/11 12:59:07;;;;;;;7.15;3.03;;;25.40;99.90;;;;;;4924144;29;20036;-52